Time;durP1;ratioP1;P1;durP2;ratioP2;P2;SDS_P1;SDS_P2;PMS_P1;PMS_P2;Temp;Humidity;BMP_temperature;BMP_pressure;BME280_temperature;BME280_humidity;BME280_pressure;Samples;Min_cycle;Max_cycle;Signal;HPM_P1;HPM_P2
2022/12/16 00:02:01;;;;;;;83.30;35.33;;;;;;;5.03;100.00;94300.19;5070240;28;20229;-53
2022/12/16 00:04:26;;;;;;;82.33;34.43;;;;;;;5.11;100.00;94286.16;5069958;28;20212;-57
2022/12/16 00:06:52;;;;;;;114.07;37.97;;;;;;;5.00;100.00;94302.94;5070043;28;20684;-53
2022/12/16 00:09:17;;;;;;;92.37;37.87;;;;;;;4.74;100.00;94296.34;5070702;28;20211;-53
2022/12/16 00:11:43;;;;;;;96.77;36.67;;;;;;;4.73;100.00;94297.25;5073656;28;20635;-54
2022/12/16 00:14:08;;;;;;;68.53;33.03;;;;;;;4.82;100.00;94304.19;5038846;28;20223;-53
2022/12/16 00:16:33;;;;;;;130.60;37.67;;;;;;;4.82;100.00;94289.91;5073529;28;20553;-55
2022/12/16 00:18:59;;;;;;;85.57;33.60;;;;;;;4.92;100.00;94295.91;5073369;28;20227;-54
2022/12/16 00:21:28;;;;;;;82.03;33.80;;;;;;;5.01;100.00;94286.91;5073347;28;20278;-55
2022/12/16 00:23:55;;;;;;;107.90;40.37;;;;;;;4.98;100.00;94292.97;5073431;28;20183;-53
2022/12/16 00:26:20;;;;;;;83.03;39.53;;;;;;;4.98;100.00;94282.91;5073409;28;20252;-53
2022/12/16 00:28:46;;;;;;;81.47;37.67;;;;;;;4.86;100.00;94301.38;5073372;28;20643;-53
2022/12/16 00:31:11;;;;;;;69.53;33.67;;;;;;;4.74;100.00;94279.53;5073678;28;20593;-55
2022/12/16 00:33:37;;;;;;;98.60;38.80;;;;;;;4.83;100.00;94305.78;5073220;28;20262;-54
2022/12/16 00:36:03;;;;;;;72.50;36.73;;;;;;;4.75;100.00;94276.09;5073545;28;20216;-53
2022/12/16 00:38:28;;;;;;;80.87;36.17;;;;;;;4.92;100.00;94297.63;5073158;28;20196;-52
2022/12/16 00:40:54;;;;;;;82.63;35.43;;;;;;;4.87;100.00;94305.47;5073351;28;20228;-55
2022/12/16 00:43:19;;;;;;;85.30;35.07;;;;;;;4.85;100.00;94287.16;5073248;28;20240;-54
2022/12/16 00:45:45;;;;;;;91.33;39.83;;;;;;;4.68;100.00;94295.06;5073334;28;20217;-56
2022/12/16 00:48:11;;;;;;;79.43;36.03;;;;;;;4.96;100.00;94272.13;5073196;28;20244;-55
2022/12/16 00:50:37;;;;;;;88.10;40.00;;;;;;;4.78;100.00;94296.03;5072956;28;20210;-56
2022/12/16 00:53:03;;;;;;;91.77;41.77;;;;;;;4.79;100.00;94277.50;5073021;28;20193;-55
2022/12/16 00:55:29;;;;;;;85.03;40.80;;;;;;;4.96;100.00;94274.66;5073187;28;20601;-55
2022/12/16 00:57:54;;;;;;;73.97;36.80;;;;;;;5.17;100.00;94279.09;5073020;28;20197;-54
2022/12/16 01:00:21;;;;;;;93.63;43.33;;;;;;;4.73;100.00;94287.19;5073040;28;20670;-55
2022/12/16 01:02:48;;;;;;;89.33;43.87;;;;;;;4.88;100.00;94276.06;5072802;28;20199;-52
2022/12/16 01:05:18;;;;;;;99.47;44.57;;;;;;;4.90;100.00;94282.63;5072889;28;20220;-53
2022/12/16 01:07:43;;;;;;;115.97;54.20;;;;;;;4.92;100.00;94275.75;5072684;28;20187;-53
2022/12/16 01:10:09;;;;;;;124.47;53.63;;;;;;;5.01;100.00;94291.94;5072771;28;20660;-54
2022/12/16 01:12:36;;;;;;;122.27;52.73;;;;;;;4.79;100.00;94267.44;5072635;28;20188;-52
2022/12/16 01:15:05;;;;;;;125.03;54.43;;;;;;;4.76;100.00;94282.75;5072840;28;20302;-55
2022/12/16 01:17:30;;;;;;;122.50;54.40;;;;;;;4.73;100.00;94275.41;5054575;28;20195;-53
2022/12/16 01:19:56;;;;;;;117.53;53.60;;;;;;;4.89;100.00;94267.59;5071927;28;20216;-56
2022/12/16 01:22:22;;;;;;;138.10;58.63;;;;;;;4.28;100.00;94304.44;5072436;28;20191;-55
2022/12/16 01:24:48;;;;;;;148.87;59.43;;;;;;;4.52;100.00;94288.63;5072640;28;20207;-54
2022/12/16 01:27:14;;;;;;;136.23;57.37;;;;;;;4.51;100.00;94282.78;5072224;28;20184;-55
2022/12/16 01:29:40;;;;;;;130.33;59.63;;;;;;;4.46;100.00;94287.34;5072586;28;20254;-54
2022/12/16 01:32:06;;;;;;;152.63;58.23;;;;;;;4.40;100.00;94257.56;5072339;28;20181;-53
2022/12/16 01:34:32;;;;;;;168.53;60.60;;;;;;;4.45;100.00;94269.81;5072448;28;20632;-52
2022/12/16 01:36:57;;;;;;;138.67;59.37;;;;;;;4.48;100.00;94246.97;5072437;28;20178;-54
2022/12/16 01:39:25;;;;;;;192.80;62.03;;;;;;;4.34;100.00;94277.28;5072299;28;20209;-52
2022/12/16 01:41:51;;;;;;;193.37;68.40;;;;;;;4.14;100.00;94255.97;5072177;28;20205;-55
2022/12/16 01:44:21;;;;;;;236.53;66.97;;;;;;;4.30;100.00;94273.38;5072143;28;20214;-54
2022/12/16 01:47:00;;;;;;;190.13;65.17;;;;;;;4.18;100.00;94280.81;5072204;28;20665;-55
2022/12/16 01:49:35;;;;;;;229.33;67.93;;;;;;;4.14;100.00;94245.94;5054041;28;20246;-56
2022/12/16 01:52:04;;;;;;;211.00;71.60;;;;;;;4.01;100.00;94240.09;5071906;28;20187;-55
2022/12/16 01:54:36;;;;;;;182.20;64.10;;;;;;;4.28;100.00;94260.91;5072002;28;20261;-56
2022/12/16 01:57:08;;;;;;;159.87;62.80;;;;;;;4.08;100.00;94276.50;5072163;28;20610;-56
2022/12/16 01:59:36;;;;;;;139.63;62.17;;;;;;;4.15;100.00;94245.00;5072065;28;20210;-56
2022/12/16 02:02:02;;;;;;;176.63;62.37;;;;;;;4.25;100.00;94256.06;5072051;28;20275;-53
2022/12/16 02:04:28;;;;;;;163.50;59.10;;;;;;;4.03;100.00;94269.25;5072036;28;20244;-55
2022/12/16 02:06:53;;;;;;;117.87;49.87;;;;;;;4.09;100.00;94251.25;5071894;28;20208;-53
2022/12/16 02:09:19;;;;;;;158.10;52.13;;;;;;;4.02;100.00;94269.38;5071693;28;20295;-55
2022/12/16 02:12:12;;;;;;;106.90;46.33;;;;;;;4.24;100.00;94219.25;5053877;28;20284;-53
2022/12/16 02:15:18;;;;;;;121.07;49.07;;;;;;;4.07;100.00;94243.00;5071692;28;20225;-53
2022/12/16 02:18:22;;;;;;;100.80;44.30;;;;;;;4.34;100.00;94230.31;5071579;28;20197;-57
2022/12/16 02:21:16;;;;;;;82.80;41.67;;;;;;;4.38;100.00;94211.59;5025938;28;20234;-52
2022/12/16 02:24:01;;;;;;;98.67;42.60;;;;;;;4.20;100.00;94215.34;5071664;28;20180;-52
2022/12/16 02:27:18;;;;;;;96.80;43.50;;;;;;;4.17;100.00;94228.09;5071003;28;20211;-56
2022/12/16 02:30:00;;;;;;;89.47;42.93;;;;;;;4.35;100.00;94226.06;4970642;28;20309;-55
2022/12/16 02:32:32;;;;;;;102.03;43.03;;;;;;;4.41;100.00;94236.50;4969898;28;20667;-54
2022/12/16 02:35:02;;;;;;;94.53;42.77;;;;;;;4.47;100.00;94240.31;5042779;28;20236;-52
2022/12/16 02:37:45;;;;;;;103.73;45.10;;;;;;;4.33;100.00;94227.88;5071449;28;20559;-53
2022/12/16 02:40:40;;;;;;;93.93;40.70;;;;;;;4.31;100.00;94207.84;5071386;28;20598;-59
2022/12/16 02:43:47;;;;;;;104.27;43.17;;;;;;;4.42;100.00;94239.84;5071304;28;20280;-52
2022/12/16 02:46:13;;;;;;;82.07;38.53;;;;;;;4.38;100.00;94244.28;5045437;28;20214;-53
2022/12/16 02:48:39;;;;;;;99.27;41.70;;;;;;;4.32;100.00;94229.59;5071199;28;20204;-53
2022/12/16 02:51:04;;;;;;;100.73;43.53;;;;;;;4.20;100.00;94218.63;5071442;28;20209;-56
2022/12/16 02:53:34;;;;;;;138.53;54.07;;;;;;;4.29;100.00;94257.47;5071306;28;20181;-53
2022/12/16 02:56:26;;;;;;;157.83;63.10;;;;;;;4.16;100.00;94251.66;5071282;28;20220;-56
2022/12/16 02:59:15;;;;;;;149.73;66.20;;;;;;;4.17;100.00;94256.56;5026463;28;20248;-57
2022/12/16 03:01:56;;;;;;;168.40;73.23;;;;;;;4.15;100.00;94285.25;5053069;28;20222;-56
2022/12/16 03:04:35;;;;;;;182.10;70.57;;;;;;;4.40;100.00;94275.19;5070785;28;20276;-53
2022/12/16 03:07:06;;;;;;;177.73;72.73;;;;;;;4.27;100.00;94256.75;5070814;28;20212;-54
2022/12/16 03:09:36;;;;;;;157.67;68.33;;;;;;;4.47;100.00;94288.13;5071129;28;20570;-53
2022/12/16 03:12:05;;;;;;;146.50;63.57;;;;;;;4.37;100.00;94230.09;5071091;28;20303;-56
2022/12/16 03:14:34;;;;;;;143.47;63.20;;;;;;;4.36;100.00;94266.22;5070805;28;20580;-54
2022/12/16 03:17:00;;;;;;;139.57;59.23;;;;;;;4.31;100.00;94244.78;5070804;28;20181;-53
2022/12/16 03:19:29;;;;;;;142.27;63.43;;;;;;;4.29;100.00;94249.91;5070845;28;20223;-54
2022/12/16 03:22:11;;;;;;;135.50;58.70;;;;;;;4.61;100.00;94255.28;5070876;28;20659;-56
2022/12/16 03:24:38;;;;;;;145.83;57.37;;;;;;;4.52;100.00;94213.16;5070888;28;20222;-55
2022/12/16 03:27:18;;;;;;;135.57;61.70;;;;;;;4.55;100.00;94233.06;5070765;28;20648;-53
2022/12/16 03:29:49;;;;;;;131.93;58.53;;;;;;;4.59;100.00;94260.44;5070892;28;20213;-55
2022/12/16 03:32:24;;;;;;;139.77;59.10;;;;;;;4.72;100.00;94190.75;5070702;28;20190;-56
2022/12/16 03:34:59;;;;;;;135.40;61.43;;;;;;;4.70;100.00;94249.66;5070689;28;20233;-52
2022/12/16 03:37:31;;;;;;;131.57;59.50;;;;;;;4.82;100.00;94198.44;5070529;28;20653;-53
2022/12/16 03:40:02;;;;;;;131.90;60.43;;;;;;;4.78;100.00;94232.28;5070333;28;20215;-54
2022/12/16 03:42:29;;;;;;;133.10;57.87;;;;;;;4.70;100.00;94230.31;5070896;28;20178;-56
2022/12/16 03:44:56;;;;;;;123.03;56.70;;;;;;;4.76;100.00;94216.50;5073335;28;20298;-52
2022/12/16 03:47:21;;;;;;;151.43;62.10;;;;;;;4.60;100.00;94257.03;5073868;28;20196;-55
2022/12/16 03:49:46;;;;;;;145.33;62.63;;;;;;;4.46;100.00;94226.16;5073973;28;20585;-56
2022/12/16 03:52:12;;;;;;;148.10;64.90;;;;;;;4.44;100.00;94246.38;5073946;28;20640;-56
2022/12/16 03:54:37;;;;;;;215.77;68.17;;;;;;;4.34;100.00;94255.47;5074170;28;20249;-58
2022/12/16 03:57:03;;;;;;;192.23;67.93;;;;;;;4.41;100.00;94281.81;5074005;28;20195;-56
2022/12/16 03:59:28;;;;;;;166.33;64.40;;;;;;;4.24;100.00;94247.69;5073998;28;20210;-54
2022/12/16 04:01:53;;;;;;;167.83;59.73;;;;;;;4.18;100.00;94290.09;5073843;28;20663;-55
2022/12/16 04:04:19;;;;;;;239.37;73.53;;;;;;;3.90;100.00;94262.63;5073745;28;20212;-55
2022/12/16 04:07:18;;;;;;;172.87;66.70;;;;;;;3.92;100.00;94270.88;5073608;28;20185;-56
2022/12/16 04:09:30;;;;;;;173.73;67.47;;;;;;;3.92;100.00;94279.19;5073500;28;20259;-54
2022/12/16 04:25:44;;;;;;;135.07;56.23;;;;;;;4.48;100.00;94267.09;5074079;28;20709;-55
2022/12/16 04:28:09;;;;;;;138.60;56.73;;;;;;;4.36;100.00;94258.69;5073392;28;20182;-56
2022/12/16 04:30:34;;;;;;;141.90;56.10;;;;;;;4.47;100.00;94245.34;5073560;28;20571;-54
